sensor_id;sensor_type;location;lat;lon;timestamp;temperature;humidity
18611;DHT22;9435;52.122;5.502;2023-04-24T00:01:40;9.40;99.90
18611;DHT22;9435;52.122;5.502;2023-04-24T00:04:08;9.40;99.90
18611;DHT22;9435;52.122;5.502;2023-04-24T00:06:36;9.40;99.90
18611;DHT22;9435;52.122;5.502;2023-04-24T00:09:04;9.40;99.90
18611;DHT22;9435;52.122;5.502;2023-04-24T00:11:31;9.40;99.90
18611;DHT22;9435;52.122;5.502;2023-04-24T00:13:58;9.40;99.90
18611;DHT22;9435;52.122;5.502;2023-04-24T00:16:25;9.40;99.90
18611;DHT22;9435;52.122;5.502;2023-04-24T00:18:54;9.40;99.90
18611;DHT22;9435;52.122;5.502;2023-04-24T00:21:21;9.40;99.90
18611;DHT22;9435;52.122;5.502;2023-04-24T00:23:51;9.40;99.90
18611;DHT22;9435;52.122;5.502;2023-04-24T00:26:18;9.40;99.90
18611;DHT22;9435;52.122;5.502;2023-04-24T00:28:45;9.40;99.90
18611;DHT22;9435;52.122;5.502;2023-04-24T00:31:12;9.40;99.90
18611;DHT22;9435;52.122;5.502;2023-04-24T00:33:39;9.30;99.90
18611;DHT22;9435;52.122;5.502;2023-04-24T00:36:08;9.40;99.90
18611;DHT22;9435;52.122;5.502;2023-04-24T00:38:35;9.30;99.90
18611;DHT22;9435;52.122;5.502;2023-04-24T00:41:02;9.30;99.90
18611;DHT22;9435;52.122;5.502;2023-04-24T00:43:29;9.30;99.90
18611;DHT22;9435;52.122;5.502;2023-04-24T00:45:56;9.30;99.90
18611;DHT22;9435;52.122;5.502;2023-04-24T00:48:25;9.30;99.90
18611;DHT22;9435;52.122;5.502;2023-04-24T00:50:53;9.30;99.90
18611;DHT22;9435;52.122;5.502;2023-04-24T00:53:21;9.30;99.90
18611;DHT22;9435;52.122;5.502;2023-04-24T00:55:48;9.30;99.90
18611;DHT22;9435;52.122;5.502;2023-04-24T00:58:15;9.30;99.90
18611;DHT22;9435;52.122;5.502;2023-04-24T01:00:43;9.30;99.90
18611;DHT22;9435;52.122;5.502;2023-04-24T01:03:11;9.30;99.90
18611;DHT22;9435;52.122;5.502;2023-04-24T01:05:38;9.30;99.90
18611;DHT22;9435;52.122;5.502;2023-04-24T01:08:06;9.20;99.90
18611;DHT22;9435;52.122;5.502;2023-04-24T01:10:35;9.20;99.90
18611;DHT22;9435;52.122;5.502;2023-04-24T01:13:03;9.20;99.90
18611;DHT22;9435;52.122;5.502;2023-04-24T01:15:30;9.20;99.90
18611;DHT22;9435;52.122;5.502;2023-04-24T01:17:57;9.20;99.90
18611;DHT22;9435;52.122;5.502;2023-04-24T01:20:24;9.20;99.90
18611;DHT22;9435;52.122;5.502;2023-04-24T01:22:54;9.20;99.90
18611;DHT22;9435;52.122;5.502;2023-04-24T01:25:22;9.20;99.90
18611;DHT22;9435;52.122;5.502;2023-04-24T01:27:49;9.20;99.90
18611;DHT22;9435;52.122;5.502;2023-04-24T01:30:17;9.20;99.90
18611;DHT22;9435;52.122;5.502;2023-04-24T01:32:44;9.20;99.90
18611;DHT22;9435;52.122;5.502;2023-04-24T01:35:12;9.20;99.90
18611;DHT22;9435;52.122;5.502;2023-04-24T01:37:39;9.20;99.90
18611;DHT22;9435;52.122;5.502;2023-04-24T01:40:08;9.20;99.90
18611;DHT22;9435;52.122;5.502;2023-04-24T01:42:36;9.20;99.90
18611;DHT22;9435;52.122;5.502;2023-04-24T01:45:04;9.30;99.90
18611;DHT22;9435;52.122;5.502;2023-04-24T01:47:32;9.30;99.90
18611;DHT22;9435;52.122;5.502;2023-04-24T01:49:59;9.30;99.90
18611;DHT22;9435;52.122;5.502;2023-04-24T01:52:26;9.30;99.90
18611;DHT22;9435;52.122;5.502;2023-04-24T01:54:54;9.30;99.90
18611;DHT22;9435;52.122;5.502;2023-04-24T01:57:23;9.30;99.90
18611;DHT22;9435;52.122;5.502;2023-04-24T01:59:51;9.40;99.90
18611;DHT22;9435;52.122;5.502;2023-04-24T02:02:18;9.40;99.90
18611;DHT22;9435;52.122;5.502;2023-04-24T02:04:46;9.40;99.90
18611;DHT22;9435;52.122;5.502;2023-04-24T02:07:13;9.40;99.90
18611;DHT22;9435;52.122;5.502;2023-04-24T02:09:40;9.40;99.90
18611;DHT22;9435;52.122;5.502;2023-04-24T02:12:07;9.40;99.90
18611;DHT22;9435;52.122;5.502;2023-04-24T02:14:36;9.30;99.90
18611;DHT22;9435;52.122;5.502;2023-04-24T02:17:03;9.30;99.90
18611;DHT22;9435;52.122;5.502;2023-04-24T02:19:30;9.30;99.90
18611;DHT22;9435;52.122;5.502;2023-04-24T02:21:57;9.20;99.90
18611;DHT22;9435;52.122;5.502;2023-04-24T02:24:24;9.30;99.90
18611;DHT22;9435;52.122;5.502;2023-04-24T02:26:51;9.30;99.90
18611;DHT22;9435;52.122;5.502;2023-04-24T02:29:18;9.30;99.90
18611;DHT22;9435;52.122;5.502;2023-04-24T02:31:47;9.30;99.90
18611;DHT22;9435;52.122;5.502;2023-04-24T02:34:14;9.30;99.90
18611;DHT22;9435;52.122;5.502;2023-04-24T02:36:41;9.30;99.90
18611;DHT22;9435;52.122;5.502;2023-04-24T02:39:09;9.30;99.90
18611;DHT22;9435;52.122;5.502;2023-04-24T02:41:36;9.30;99.90
18611;DHT22;9435;52.122;5.502;2023-04-24T02:44:03;9.30;99.90
18611;DHT22;9435;52.122;5.502;2023-04-24T02:46:30;9.30;99.90
18611;DHT22;9435;52.122;5.502;2023-04-24T02:48:58;9.30;99.90
18611;DHT22;9435;52.122;5.502;2023-04-24T02:51:25;9.30;99.90
18611;DHT22;9435;52.122;5.502;2023-04-24T02:53:52;9.30;99.90
18611;DHT22;9435;52.122;5.502;2023-04-24T02:56:19;9.30;99.90
18611;DHT22;9435;52.122;5.502;2023-04-24T02:58:46;9.30;99.90
18611;DHT22;9435;52.122;5.502;2023-04-24T03:01:13;9.30;99.90
18611;DHT22;9435;52.122;5.502;2023-04-24T03:03:40;9.30;99.90
18611;DHT22;9435;52.122;5.502;2023-04-24T03:06:09;9.30;99.90
18611;DHT22;9435;52.122;5.502;2023-04-24T03:08:36;9.30;99.90
18611;DHT22;9435;52.122;5.502;2023-04-24T03:11:03;9.30;99.90
18611;DHT22;9435;52.122;5.502;2023-04-24T03:13:30;9.30;99.90
18611;DHT22;9435;52.122;5.502;2023-04-24T03:15:57;9.30;99.90
18611;DHT22;9435;52.122;5.502;2023-04-24T03:18:25;9.20;99.90
18611;DHT22;9435;52.122;5.502;2023-04-24T03:20:52;9.30;99.90
18611;DHT22;9435;52.122;5.502;2023-04-24T03:23:20;9.30;99.90
18611;DHT22;9435;52.122;5.502;2023-04-24T03:25:47;9.30;99.90
18611;DHT22;9435;52.122;5.502;2023-04-24T03:28:14;9.20;99.90
18611;DHT22;9435;52.122;5.502;2023-04-24T03:30:41;9.30;99.90
18611;DHT22;9435;52.122;5.502;2023-04-24T03:33:08;9.30;99.90
18611;DHT22;9435;52.122;5.502;2023-04-24T03:35:36;9.20;99.90
18611;DHT22;9435;52.122;5.502;2023-04-24T03:38:03;9.30;99.90
18611;DHT22;9435;52.122;5.502;2023-04-24T03:40:32;9.20;99.90
18611;DHT22;9435;52.122;5.502;2023-04-24T03:43:00;9.30;99.90
18611;DHT22;9435;52.122;5.502;2023-04-24T03:45:27;9.30;99.90
18611;DHT22;9435;52.122;5.502;2023-04-24T03:47:54;9.20;99.90
18611;DHT22;9435;52.122;5.502;2023-04-24T03:50:21;9.30;99.90
18611;DHT22;9435;52.122;5.502;2023-04-24T03:52:48;9.30;99.90
18611;DHT22;9435;52.122;5.502;2023-04-24T03:55:15;9.30;99.90
18611;DHT22;9435;52.122;5.502;2023-04-24T03:57:43;9.30;99.90
18611;DHT22;9435;52.122;5.502;2023-04-24T04:00:11;9.30;99.90
18611;DHT22;9435;52.122;5.502;2023-04-24T04:02:39;9.30;99.90
18611;DHT22;9435;52.122;5.502;2023-04-24T04:05:07;9.30;99.90
18611;DHT22;9435;52.122;5.502;2023-04-24T04:07:34;9.20;99.90
18611;DHT22;9435;52.122;5.502;2023-04-24T04:10:01;9.20;99.90
18611;DHT22;9435;52.122;5.502;2023-04-24T04:12:29;9.20;99.90
18611;DHT22;9435;52.122;5.502;2023-04-24T04:14:57;9.10;99.90
18611;DHT22;9435;52.122;5.502;2023-04-24T04:17:24;9.10;99.90
18611;DHT22;9435;52.122;5.502;2023-04-24T04:19:51;9.10;99.90
18611;DHT22;9435;52.122;5.502;2023-04-24T04:22:18;9.00;99.90
18611;DHT22;9435;52.122;5.502;2023-04-24T04:24:45;9.10;99.90
18611;DHT22;9435;52.122;5.502;2023-04-24T04:27:12;9.10;99.90
18611;DHT22;9435;52.122;5.502;2023-04-24T04:29:39;9.10;99.90
18611;DHT22;9435;52.122;5.502;2023-04-24T04:32:09;9.10;99.90
18611;DHT22;9435;52.122;5.502;2023-04-24T04:34:36;9.20;99.90
18611;DHT22;9435;52.122;5.502;2023-04-24T04:37:05;9.20;99.90
18611;DHT22;9435;52.122;5.502;2023-04-24T04:39:32;9.30;99.90
18611;DHT22;9435;52.122;5.502;2023-04-24T04:41:59;9.30;99.90
18611;DHT22;9435;52.122;5.502;2023-04-24T04:44:27;9.30;99.90
18611;DHT22;9435;52.122;5.502;2023-04-24T04:46:56;9.30;99.90
18611;DHT22;9435;52.122;5.502;2023-04-24T04:49:26;9.30;99.90
18611;DHT22;9435;52.122;5.502;2023-04-24T04:51:54;9.30;99.90
18611;DHT22;9435;52.122;5.502;2023-04-24T04:54:21;9.30;99.90
18611;DHT22;9435;52.122;5.502;2023-04-24T04:56:49;9.20;99.90
18611;DHT22;9435;52.122;5.502;2023-04-24T04:59:16;9.20;99.90
18611;DHT22;9435;52.122;5.502;2023-04-24T05:01:43;9.30;99.90
18611;DHT22;9435;52.122;5.502;2023-04-24T05:04:10;9.20;99.90
18611;DHT22;9435;52.122;5.502;2023-04-24T05:06:39;9.20;99.90
18611;DHT22;9435;52.122;5.502;2023-04-24T05:09:06;9.20;99.90
18611;DHT22;9435;52.122;5.502;2023-04-24T05:11:33;9.20;99.90
18611;DHT22;9435;52.122;5.502;2023-04-24T05:14:00;9.20;99.90
18611;DHT22;9435;52.122;5.502;2023-04-24T05:16:30;9.10;99.90
18611;DHT22;9435;52.122;5.502;2023-04-24T05:18:57;9.10;99.90
18611;DHT22;9435;52.122;5.502;2023-04-24T05:21:24;9.10;99.90
18611;DHT22;9435;52.122;5.502;2023-04-24T05:23:53;9.10;99.90
18611;DHT22;9435;52.122;5.502;2023-04-24T05:26:20;9.20;99.90
18611;DHT22;9435;52.122;5.502;2023-04-24T05:28:48;9.20;99.90
18611;DHT22;9435;52.122;5.502;2023-04-24T05:31:15;9.10;99.90
18611;DHT22;9435;52.122;5.502;2023-04-24T05:33:43;9.20;99.90
18611;DHT22;9435;52.122;5.502;2023-04-24T05:36:10;9.20;99.90
18611;DHT22;9435;52.122;5.502;2023-04-24T05:38:37;9.20;99.90
18611;DHT22;9435;52.122;5.502;2023-04-24T05:41:05;9.20;99.90
18611;DHT22;9435;52.122;5.502;2023-04-24T05:43:32;9.20;99.90
18611;DHT22;9435;52.122;5.502;2023-04-24T05:45:59;9.20;99.90
18611;DHT22;9435;52.122;5.502;2023-04-24T05:48:27;9.20;99.90
18611;DHT22;9435;52.122;5.502;2023-04-24T05:50:57;9.20;99.90
18611;DHT22;9435;52.122;5.502;2023-04-24T05:53:24;9.20;99.90
18611;DHT22;9435;52.122;5.502;2023-04-24T05:55:53;9.20;99.90
18611;DHT22;9435;52.122;5.502;2023-04-24T05:58:21;9.20;99.90
18611;DHT22;9435;52.122;5.502;2023-04-24T06:00:48;9.20;99.90
18611;DHT22;9435;52.122;5.502;2023-04-24T06:03:15;9.20;99.90
18611;DHT22;9435;52.122;5.502;2023-04-24T06:05:42;9.20;99.90
18611;DHT22;9435;52.122;5.502;2023-04-24T06:08:10;9.20;99.90
18611;DHT22;9435;52.122;5.502;2023-04-24T06:10:37;9.10;99.90
18611;DHT22;9435;52.122;5.502;2023-04-24T06:13:04;9.10;99.90
18611;DHT22;9435;52.122;5.502;2023-04-24T06:15:32;9.10;99.90
18611;DHT22;9435;52.122;5.502;2023-04-24T06:17:59;9.10;99.90
18611;DHT22;9435;52.122;5.502;2023-04-24T06:20:27;9.10;99.90
18611;DHT22;9435;52.122;5.502;2023-04-24T06:22:55;9.10;99.90
18611;DHT22;9435;52.122;5.502;2023-04-24T06:25:24;9.10;99.90
18611;DHT22;9435;52.122;5.502;2023-04-24T06:27:52;9.10;99.90
18611;DHT22;9435;52.122;5.502;2023-04-24T06:30:19;9.00;99.90
18611;DHT22;9435;52.122;5.502;2023-04-24T06:32:47;8.90;99.90
18611;DHT22;9435;52.122;5.502;2023-04-24T06:35:14;8.90;99.90
18611;DHT22;9435;52.122;5.502;2023-04-24T06:37:42;8.80;99.90
18611;DHT22;9435;52.122;5.502;2023-04-24T06:40:10;8.80;99.90
18611;DHT22;9435;52.122;5.502;2023-04-24T06:42:37;8.90;99.90
18611;DHT22;9435;52.122;5.502;2023-04-24T06:45:11;8.80;99.90
18611;DHT22;9435;52.122;5.502;2023-04-24T06:47:38;8.80;99.90
18611;DHT22;9435;52.122;5.502;2023-04-24T06:50:07;8.80;99.90
18611;DHT22;9435;52.122;5.502;2023-04-24T06:52:34;8.80;99.90
18611;DHT22;9435;52.122;5.502;2023-04-24T06:55:02;8.90;99.90
18611;DHT22;9435;52.122;5.502;2023-04-24T06:57:29;8.90;99.90
18611;DHT22;9435;52.122;5.502;2023-04-24T06:59:56;8.90;99.90
18611;DHT22;9435;52.122;5.502;2023-04-24T07:02:24;9.00;99.90
18611;DHT22;9435;52.122;5.502;2023-04-24T07:04:51;9.00;99.90
18611;DHT22;9435;52.122;5.502;2023-04-24T07:07:19;9.00;99.90
18611;DHT22;9435;52.122;5.502;2023-04-24T07:09:47;9.00;99.90
18611;DHT22;9435;52.122;5.502;2023-04-24T07:12:14;9.00;99.90
18611;DHT22;9435;52.122;5.502;2023-04-24T07:14:42;9.00;99.90
18611;DHT22;9435;52.122;5.502;2023-04-24T07:17:09;9.00;99.90
18611;DHT22;9435;52.122;5.502;2023-04-24T07:19:38;9.00;99.90
18611;DHT22;9435;52.122;5.502;2023-04-24T07:22:05;9.00;99.90
18611;DHT22;9435;52.122;5.502;2023-04-24T07:24:34;9.00;99.90
18611;DHT22;9435;52.122;5.502;2023-04-24T07:27:01;9.00;99.90
18611;DHT22;9435;52.122;5.502;2023-04-24T07:29:28;8.90;99.90
18611;DHT22;9435;52.122;5.502;2023-04-24T07:31:55;8.90;99.90
18611;DHT22;9435;52.122;5.502;2023-04-24T07:34:23;8.80;99.90
18611;DHT22;9435;52.122;5.502;2023-04-24T07:36:50;8.80;99.90
18611;DHT22;9435;52.122;5.502;2023-04-24T07:39:17;8.80;99.90
18611;DHT22;9435;52.122;5.502;2023-04-24T07:41:46;8.80;99.90
18611;DHT22;9435;52.122;5.502;2023-04-24T07:44:13;8.80;99.90
18611;DHT22;9435;52.122;5.502;2023-04-24T07:46:40;8.80;99.90
18611;DHT22;9435;52.122;5.502;2023-04-24T07:49:07;8.80;99.90
18611;DHT22;9435;52.122;5.502;2023-04-24T07:51:34;8.80;99.90
18611;DHT22;9435;52.122;5.502;2023-04-24T07:54:03;8.80;99.90
18611;DHT22;9435;52.122;5.502;2023-04-24T07:56:32;8.80;99.90
18611;DHT22;9435;52.122;5.502;2023-04-24T07:59:00;8.70;99.90
18611;DHT22;9435;52.122;5.502;2023-04-24T08:01:28;8.80;99.90
18611;DHT22;9435;52.122;5.502;2023-04-24T08:03:55;8.80;99.90
18611;DHT22;9435;52.122;5.502;2023-04-24T08:06:22;8.80;99.90
18611;DHT22;9435;52.122;5.502;2023-04-24T08:08:49;8.80;99.90
18611;DHT22;9435;52.122;5.502;2023-04-24T08:11:17;8.80;99.90
18611;DHT22;9435;52.122;5.502;2023-04-24T08:13:44;8.80;99.90
18611;DHT22;9435;52.122;5.502;2023-04-24T08:16:12;8.90;99.90
18611;DHT22;9435;52.122;5.502;2023-04-24T08:18:40;8.90;99.90
18611;DHT22;9435;52.122;5.502;2023-04-24T08:21:07;8.80;99.90
18611;DHT22;9435;52.122;5.502;2023-04-24T08:23:34;8.80;99.90
18611;DHT22;9435;52.122;5.502;2023-04-24T08:26:01;8.80;99.90
18611;DHT22;9435;52.122;5.502;2023-04-24T08:28:29;8.80;99.90
18611;DHT22;9435;52.122;5.502;2023-04-24T08:30:56;8.70;99.90
18611;DHT22;9435;52.122;5.502;2023-04-24T08:33:25;8.70;99.90
18611;DHT22;9435;52.122;5.502;2023-04-24T08:35:53;8.70;99.90
18611;DHT22;9435;52.122;5.502;2023-04-24T08:38:20;8.70;99.90
18611;DHT22;9435;52.122;5.502;2023-04-24T08:40:47;8.60;99.90
18611;DHT22;9435;52.122;5.502;2023-04-24T08:43:15;8.60;99.90
18611;DHT22;9435;52.122;5.502;2023-04-24T08:45:43;8.50;99.90
18611;DHT22;9435;52.122;5.502;2023-04-24T08:48:10;8.60;99.90
18611;DHT22;9435;52.122;5.502;2023-04-24T08:50:40;8.60;99.90
18611;DHT22;9435;52.122;5.502;2023-04-24T08:53:09;8.60;99.90
18611;DHT22;9435;52.122;5.502;2023-04-24T08:55:37;8.70;99.90
18611;DHT22;9435;52.122;5.502;2023-04-24T08:58:04;8.60;99.90
18611;DHT22;9435;52.122;5.502;2023-04-24T09:00:32;8.80;99.90
18611;DHT22;9435;52.122;5.502;2023-04-24T09:03:00;8.80;99.90
18611;DHT22;9435;52.122;5.502;2023-04-24T09:05:28;8.90;99.90
18611;DHT22;9435;52.122;5.502;2023-04-24T09:07:57;8.80;99.90
18611;DHT22;9435;52.122;5.502;2023-04-24T09:10:25;8.90;99.90
18611;DHT22;9435;52.122;5.502;2023-04-24T09:12:54;8.90;99.90
18611;DHT22;9435;52.122;5.502;2023-04-24T09:15:22;8.80;99.90
18611;DHT22;9435;52.122;5.502;2023-04-24T09:17:49;8.90;99.90
18611;DHT22;9435;52.122;5.502;2023-04-24T09:20:16;8.80;99.90
18611;DHT22;9435;52.122;5.502;2023-04-24T09:22:45;8.80;99.90
18611;DHT22;9435;52.122;5.502;2023-04-24T09:25:13;8.80;99.90
18611;DHT22;9435;52.122;5.502;2023-04-24T09:27:45;8.90;99.90
18611;DHT22;9435;52.122;5.502;2023-04-24T09:30:13;8.90;99.90
18611;DHT22;9435;52.122;5.502;2023-04-24T09:32:40;9.00;99.90
18611;DHT22;9435;52.122;5.502;2023-04-24T09:35:09;9.00;99.90
18611;DHT22;9435;52.122;5.502;2023-04-24T09:37:38;9.10;99.90
18611;DHT22;9435;52.122;5.502;2023-04-24T09:40:15;9.40;99.90
18611;DHT22;9435;52.122;5.502;2023-04-24T09:42:45;9.50;99.90
18611;DHT22;9435;52.122;5.502;2023-04-24T09:45:13;9.70;99.90
18611;DHT22;9435;52.122;5.502;2023-04-24T09:47:41;9.80;99.90
18611;DHT22;9435;52.122;5.502;2023-04-24T09:50:13;9.80;99.90
18611;DHT22;9435;52.122;5.502;2023-04-24T09:52:42;9.80;99.90
18611;DHT22;9435;52.122;5.502;2023-04-24T09:55:28;10.00;99.90
18611;DHT22;9435;52.122;5.502;2023-04-24T09:57:57;9.90;99.90
18611;DHT22;9435;52.122;5.502;2023-04-24T10:00:27;10.00;99.90
18611;DHT22;9435;52.122;5.502;2023-04-24T10:02:58;9.90;99.90
18611;DHT22;9435;52.122;5.502;2023-04-24T10:05:29;9.70;99.90
18611;DHT22;9435;52.122;5.502;2023-04-24T10:07:57;9.60;99.90
18611;DHT22;9435;52.122;5.502;2023-04-24T10:10:25;9.40;99.90
18611;DHT22;9435;52.122;5.502;2023-04-24T10:12:54;9.50;99.90
18611;DHT22;9435;52.122;5.502;2023-04-24T10:15:22;9.40;99.90
18611;DHT22;9435;52.122;5.502;2023-04-24T10:17:50;9.40;99.90
18611;DHT22;9435;52.122;5.502;2023-04-24T10:20:20;9.60;99.90
18611;DHT22;9435;52.122;5.502;2023-04-24T10:22:49;9.70;99.90
18611;DHT22;9435;52.122;5.502;2023-04-24T10:25:20;9.80;99.90
18611;DHT22;9435;52.122;5.502;2023-04-24T10:27:48;9.80;99.90
18611;DHT22;9435;52.122;5.502;2023-04-24T10:30:17;9.90;99.90
18611;DHT22;9435;52.122;5.502;2023-04-24T10:32:45;9.80;99.90
18611;DHT22;9435;52.122;5.502;2023-04-24T10:35:13;9.90;99.90
18611;DHT22;9435;52.122;5.502;2023-04-24T10:37:45;10.00;99.90
18611;DHT22;9435;52.122;5.502;2023-04-24T10:40:18;10.00;99.90
18611;DHT22;9435;52.122;5.502;2023-04-24T10:42:47;10.10;99.90
18611;DHT22;9435;52.122;5.502;2023-04-24T10:45:20;10.20;99.90
18611;DHT22;9435;52.122;5.502;2023-04-24T10:47:57;10.30;99.90
18611;DHT22;9435;52.122;5.502;2023-04-24T10:50:27;10.30;99.90
18611;DHT22;9435;52.122;5.502;2023-04-24T10:53:05;10.40;99.90
18611;DHT22;9435;52.122;5.502;2023-04-24T10:55:43;10.60;99.90
18611;DHT22;9435;52.122;5.502;2023-04-24T10:58:11;10.70;99.90
18611;DHT22;9435;52.122;5.502;2023-04-24T11:00:40;10.70;99.90
18611;DHT22;9435;52.122;5.502;2023-04-24T11:03:23;10.50;99.90
18611;DHT22;9435;52.122;5.502;2023-04-24T11:05:56;10.10;99.90
18611;DHT22;9435;52.122;5.502;2023-04-24T11:08:26;10.00;99.90
18611;DHT22;9435;52.122;5.502;2023-04-24T11:11:01;10.00;99.90
18611;DHT22;9435;52.122;5.502;2023-04-24T11:16:46;9.70;99.90
18611;DHT22;9435;52.122;5.502;2023-04-24T11:19:21;9.60;99.90
18611;DHT22;9435;52.122;5.502;2023-04-24T11:21:55;9.60;99.90
18611;DHT22;9435;52.122;5.502;2023-04-24T11:24:26;9.70;99.90
18611;DHT22;9435;52.122;5.502;2023-04-24T11:26:54;9.70;99.90
18611;DHT22;9435;52.122;5.502;2023-04-24T11:29:22;9.60;99.90
18611;DHT22;9435;52.122;5.502;2023-04-24T11:31:51;9.40;99.90
18611;DHT22;9435;52.122;5.502;2023-04-24T11:34:18;9.30;99.90
18611;DHT22;9435;52.122;5.502;2023-04-24T11:36:46;9.40;99.90
18611;DHT22;9435;52.122;5.502;2023-04-24T11:39:14;9.60;99.90
18611;DHT22;9435;52.122;5.502;2023-04-24T11:41:41;9.90;99.90
18611;DHT22;9435;52.122;5.502;2023-04-24T11:44:09;10.00;99.90
18611;DHT22;9435;52.122;5.502;2023-04-24T11:46:37;10.10;99.90
18611;DHT22;9435;52.122;5.502;2023-04-24T11:49:07;10.30;99.90
18611;DHT22;9435;52.122;5.502;2023-04-24T11:51:34;10.40;99.90
18611;DHT22;9435;52.122;5.502;2023-04-24T11:54:01;10.30;99.90
18611;DHT22;9435;52.122;5.502;2023-04-24T11:56:28;10.20;99.90
18611;DHT22;9435;52.122;5.502;2023-04-24T11:58:56;10.10;99.90
18611;DHT22;9435;52.122;5.502;2023-04-24T12:01:23;10.30;99.90
18611;DHT22;9435;52.122;5.502;2023-04-24T12:03:50;10.60;99.90
18611;DHT22;9435;52.122;5.502;2023-04-24T12:06:27;10.80;99.90
18611;DHT22;9435;52.122;5.502;2023-04-24T12:08:54;11.00;99.90
18611;DHT22;9435;52.122;5.502;2023-04-24T12:11:23;11.20;99.90
18611;DHT22;9435;52.122;5.502;2023-04-24T12:13:51;11.40;99.90
18611;DHT22;9435;52.122;5.502;2023-04-24T12:16:18;11.30;99.90
18611;DHT22;9435;52.122;5.502;2023-04-24T12:18:45;11.00;99.90
18611;DHT22;9435;52.122;5.502;2023-04-24T12:21:19;10.60;99.90
18611;DHT22;9435;52.122;5.502;2023-04-24T12:23:48;10.60;99.90
18611;DHT22;9435;52.122;5.502;2023-04-24T12:26:17;10.50;99.90
18611;DHT22;9435;52.122;5.502;2023-04-24T12:28:47;10.30;99.90
18611;DHT22;9435;52.122;5.502;2023-04-24T12:31:15;10.40;99.90
18611;DHT22;9435;52.122;5.502;2023-04-24T12:33:43;10.30;99.90
18611;DHT22;9435;52.122;5.502;2023-04-24T12:36:11;10.10;99.90
18611;DHT22;9435;52.122;5.502;2023-04-24T12:38:39;10.10;99.90
18611;DHT22;9435;52.122;5.502;2023-04-24T12:41:12;10.20;99.90
18611;DHT22;9435;52.122;5.502;2023-04-24T12:43:51;10.40;99.90
18611;DHT22;9435;52.122;5.502;2023-04-24T12:46:18;10.90;99.90
18611;DHT22;9435;52.122;5.502;2023-04-24T12:48:45;10.80;99.90
18611;DHT22;9435;52.122;5.502;2023-04-24T12:51:12;10.80;99.90
18611;DHT22;9435;52.122;5.502;2023-04-24T12:53:39;10.60;99.90
18611;DHT22;9435;52.122;5.502;2023-04-24T12:56:06;10.60;99.90
18611;DHT22;9435;52.122;5.502;2023-04-24T12:58:34;10.50;99.90
18611;DHT22;9435;52.122;5.502;2023-04-24T13:01:01;10.40;99.90
18611;DHT22;9435;52.122;5.502;2023-04-24T13:03:28;10.50;99.90
18611;DHT22;9435;52.122;5.502;2023-04-24T13:05:55;10.40;99.90
18611;DHT22;9435;52.122;5.502;2023-04-24T13:08:22;10.50;99.90
18611;DHT22;9435;52.122;5.502;2023-04-24T13:10:50;10.40;99.90
18611;DHT22;9435;52.122;5.502;2023-04-24T13:13:17;10.30;99.90
18611;DHT22;9435;52.122;5.502;2023-04-24T13:15:46;10.00;99.90
18611;DHT22;9435;52.122;5.502;2023-04-24T13:18:13;9.70;99.90
18611;DHT22;9435;52.122;5.502;2023-04-24T13:20:40;9.70;99.90
18611;DHT22;9435;52.122;5.502;2023-04-24T13:23:07;9.80;99.90
18611;DHT22;9435;52.122;5.502;2023-04-24T13:25:35;9.90;99.90
18611;DHT22;9435;52.122;5.502;2023-04-24T13:28:02;9.90;99.90
18611;DHT22;9435;52.122;5.502;2023-04-24T13:30:30;9.90;99.90
18611;DHT22;9435;52.122;5.502;2023-04-24T13:32:59;9.90;99.90
18611;DHT22;9435;52.122;5.502;2023-04-24T13:35:26;10.20;99.90
18611;DHT22;9435;52.122;5.502;2023-04-24T13:37:53;10.40;99.90
18611;DHT22;9435;52.122;5.502;2023-04-24T13:40:20;10.70;99.90
18611;DHT22;9435;52.122;5.502;2023-04-24T13:42:47;10.80;99.90
18611;DHT22;9435;52.122;5.502;2023-04-24T13:45:14;10.60;99.90
18611;DHT22;9435;52.122;5.502;2023-04-24T13:47:41;10.60;99.90
18611;DHT22;9435;52.122;5.502;2023-04-24T13:50:11;10.50;99.90
18611;DHT22;9435;52.122;5.502;2023-04-24T13:52:38;10.50;99.90
18611;DHT22;9435;52.122;5.502;2023-04-24T13:55:07;10.50;99.90
18611;DHT22;9435;52.122;5.502;2023-04-24T13:57:34;10.50;99.90
18611;DHT22;9435;52.122;5.502;2023-04-24T14:00:01;10.60;99.90
18611;DHT22;9435;52.122;5.502;2023-04-24T14:02:29;11.00;99.90
18611;DHT22;9435;52.122;5.502;2023-04-24T14:04:56;10.90;99.90
18611;DHT22;9435;52.122;5.502;2023-04-24T14:07:24;10.90;99.90
18611;DHT22;9435;52.122;5.502;2023-04-24T14:09:51;10.90;99.90
18611;DHT22;9435;52.122;5.502;2023-04-24T14:12:18;11.10;99.90
18611;DHT22;9435;52.122;5.502;2023-04-24T14:14:47;11.10;99.90
18611;DHT22;9435;52.122;5.502;2023-04-24T14:17:14;11.00;99.90
18611;DHT22;9435;52.122;5.502;2023-04-24T14:19:41;11.30;99.90
18611;DHT22;9435;52.122;5.502;2023-04-24T14:22:09;11.50;99.90
18611;DHT22;9435;52.122;5.502;2023-04-24T14:24:37;11.10;99.90
18611;DHT22;9435;52.122;5.502;2023-04-24T14:27:04;10.90;99.90
18611;DHT22;9435;52.122;5.502;2023-04-24T14:29:31;10.70;99.90
18611;DHT22;9435;52.122;5.502;2023-04-24T14:31:58;10.70;99.90
18611;DHT22;9435;52.122;5.502;2023-04-24T14:34:25;10.80;99.90
18611;DHT22;9435;52.122;5.502;2023-04-24T14:36:53;10.80;99.90
18611;DHT22;9435;52.122;5.502;2023-04-24T14:39:20;10.90;99.90
18611;DHT22;9435;52.122;5.502;2023-04-24T14:41:48;10.70;99.90
18611;DHT22;9435;52.122;5.502;2023-04-24T14:44:15;10.60;99.90
18611;DHT22;9435;52.122;5.502;2023-04-24T14:46:42;10.60;99.90
18611;DHT22;9435;52.122;5.502;2023-04-24T14:49:09;10.60;99.90
18611;DHT22;9435;52.122;5.502;2023-04-24T14:51:38;10.60;99.90
18611;DHT22;9435;52.122;5.502;2023-04-24T14:54:06;10.70;99.90
18611;DHT22;9435;52.122;5.502;2023-04-24T14:56:33;10.90;99.90
18611;DHT22;9435;52.122;5.502;2023-04-24T14:59:02;10.90;99.90
18611;DHT22;9435;52.122;5.502;2023-04-24T15:01:29;10.90;99.90
18611;DHT22;9435;52.122;5.502;2023-04-24T15:03:56;10.80;99.90
18611;DHT22;9435;52.122;5.502;2023-04-24T15:06:23;10.90;99.90
18611;DHT22;9435;52.122;5.502;2023-04-24T15:08:50;10.80;99.90
18611;DHT22;9435;52.122;5.502;2023-04-24T15:11:18;10.70;99.90
18611;DHT22;9435;52.122;5.502;2023-04-24T15:13:45;10.70;99.90
18611;DHT22;9435;52.122;5.502;2023-04-24T15:16:14;10.70;99.90
18611;DHT22;9435;52.122;5.502;2023-04-24T15:18:41;10.60;99.90
18611;DHT22;9435;52.122;5.502;2023-04-24T15:21:08;10.30;99.90
18611;DHT22;9435;52.122;5.502;2023-04-24T15:23:35;10.20;99.90
18611;DHT22;9435;52.122;5.502;2023-04-24T15:26:02;10.00;99.90
18611;DHT22;9435;52.122;5.502;2023-04-24T15:28:29;9.60;99.90
18611;DHT22;9435;52.122;5.502;2023-04-24T15:30:56;9.60;99.90
18611;DHT22;9435;52.122;5.502;2023-04-24T15:33:25;9.50;99.90
18611;DHT22;9435;52.122;5.502;2023-04-24T15:35:52;9.50;99.90
18611;DHT22;9435;52.122;5.502;2023-04-24T15:38:19;9.50;99.90
18611;DHT22;9435;52.122;5.502;2023-04-24T15:40:46;9.60;99.90
18611;DHT22;9435;52.122;5.502;2023-04-24T15:43:14;9.50;99.90
18611;DHT22;9435;52.122;5.502;2023-04-24T15:45:42;9.60;99.90
18611;DHT22;9435;52.122;5.502;2023-04-24T15:48:09;9.90;99.90
18611;DHT22;9435;52.122;5.502;2023-04-24T15:50:37;10.10;99.90
18611;DHT22;9435;52.122;5.502;2023-04-24T15:53:05;10.20;99.90
18611;DHT22;9435;52.122;5.502;2023-04-24T15:55:32;10.30;99.90
18611;DHT22;9435;52.122;5.502;2023-04-24T15:58:00;10.30;99.90
18611;DHT22;9435;52.122;5.502;2023-04-24T16:00:27;10.20;99.90
18611;DHT22;9435;52.122;5.502;2023-04-24T16:02:59;10.20;99.90
18611;DHT22;9435;52.122;5.502;2023-04-24T16:05:26;10.10;99.90